Time;durP1;ratioP1;P1;durP2;ratioP2;P2;SDS_P1;SDS_P2;PMS_P1;PMS_P2;Temp;Humidity;BMP_temperature;BMP_pressure;BME280_temperature;BME280_humidity;BME280_pressure;Samples;Min_cycle;Max_cycle;Signal;HPM_P1;HPM_P2
2020/12/09 00:01:56;;;;;;;18.45;11.60;;;;;;;;;;5014888;28;20040;-49
2020/12/09 00:04:22;;;;;;;20.67;11.63;;;;;;;;;;5014481;28;20062;-50
2020/12/09 00:06:49;;;;;;;22.15;12.30;;;;;;;;;;5014152;28;20086;-50
2020/12/09 00:09:16;;;;;;;19.50;11.52;;;;;;;;;;5013740;28;20512;-49
2020/12/09 00:11:42;;;;;;;19.15;10.93;;;;;;;;;;5010287;28;20046;-49
2020/12/09 00:14:09;;;;;;;21.30;11.45;;;;;;;;;;5009234;28;20024;-47
2020/12/09 00:16:35;;;;;;;18.20;11.02;;;;;;;;;;5011401;28;20030;-48
2020/12/09 00:19:03;;;;;;;18.75;11.00;;;;;;;;;;5013748;28;20493;-49
2020/12/09 00:21:30;;;;;;;18.30;11.05;;;;;;;;;;5013332;28;20034;-49
2020/12/09 00:23:56;;;;;;;17.27;10.73;;;;;;;;;;5013431;28;20040;-48
2020/12/09 00:26:23;;;;;;;18.70;11.05;;;;;;;;;;5012450;28;20041;-49
2020/12/09 00:28:50;;;;;;;18.98;11.23;;;;;;;;;;5013831;28;20063;-48
2020/12/09 00:31:21;;;;;;;20.23;11.43;;;;;;;;;;5013961;28;20107;-49
2020/12/09 00:33:48;;;;;;;19.13;11.98;;;;;;;;;;5014241;28;20014;-50
2020/12/09 00:36:14;;;;;;;17.70;11.10;;;;;;;;;;5013533;28;20034;-50
2020/12/09 00:38:40;;;;;;;18.92;10.90;;;;;;;;;;5004140;28;20037;-50
2020/12/09 00:41:06;;;;;;;19.27;11.30;;;;;;;;;;5012248;28;20053;-50
2020/12/09 00:43:32;;;;;;;20.15;11.38;;;;;;;;;;5013407;28;20034;-49
2020/12/09 00:45:58;;;;;;;17.35;10.98;;;;;;;;;;5013746;28;20026;-50
2020/12/09 00:48:24;;;;;;;18.25;11.13;;;;;;;;;;5013928;28;20116;-49
2020/12/09 00:50:50;;;;;;;21.88;11.90;;;;;;;;;;5013727;28;20026;-48
2020/12/09 00:53:17;;;;;;;20.65;11.85;;;;;;;;;;5013686;28;20049;-50
2020/12/09 00:55:43;;;;;;;19.88;11.82;;;;;;;;;;5013515;28;20113;-50
2020/12/09 00:58:09;;;;;;;18.75;11.00;;;;;;;;;;5013535;28;20045;-50
2020/12/09 01:00:35;;;;;;;21.13;11.30;;;;;;;;;;5012736;28;20029;-50
2020/12/09 01:03:01;;;;;;;18.77;10.95;;;;;;;;;;5013744;28;20057;-48
2020/12/09 01:05:27;;;;;;;19.20;11.32;;;;;;;;;;5013489;28;20034;-49
2020/12/09 01:07:53;;;;;;;18.50;10.80;;;;;;;;;;5013310;28;20030;-50
2020/12/09 01:10:19;;;;;;;18.38;10.88;;;;;;;;;;5012926;28;20046;-50
2020/12/09 01:12:45;;;;;;;22.15;12.25;;;;;;;;;;5012881;28;20053;-48
2020/12/09 01:15:11;;;;;;;21.40;11.43;;;;;;;;;;5013343;28;20030;-50
2020/12/09 01:17:37;;;;;;;19.48;10.55;;;;;;;;;;5013057;28;20554;-49
2020/12/09 01:20:04;;;;;;;17.95;10.40;;;;;;;;;;5013273;28;20021;-49
2020/12/09 01:22:30;;;;;;;17.58;10.88;;;;;;;;;;5012912;28;20108;-49
2020/12/09 01:24:56;;;;;;;17.63;10.50;;;;;;;;;;5012067;28;20116;-49
2020/12/09 01:27:25;;;;;;;17.58;10.38;;;;;;;;;;5013040;28;20066;-50
2020/12/09 01:29:52;;;;;;;18.67;11.00;;;;;;;;;;5012678;28;20033;-49
2020/12/09 01:32:18;;;;;;;18.88;10.32;;;;;;;;;;5012726;28;20113;-50
2020/12/09 01:34:44;;;;;;;20.50;11.48;;;;;;;;;;5013184;28;20026;-50
2020/12/09 01:37:12;;;;;;;16.70;9.63;;;;;;;;;;5012973;28;20100;-49
2020/12/09 01:39:38;;;;;;;18.73;10.52;;;;;;;;;;5012394;28;20038;-50
2020/12/09 01:42:04;;;;;;;16.33;9.85;;;;;;;;;;5012311;28;20034;-48
2020/12/09 01:44:31;;;;;;;18.10;10.73;;;;;;;;;;5012622;28;20052;-49
2020/12/09 01:46:57;;;;;;;16.02;9.40;;;;;;;;;;5012185;28;20036;-48
2020/12/09 01:49:23;;;;;;;18.20;10.80;;;;;;;;;;5011854;28;20105;-48
2020/12/09 01:51:50;;;;;;;17.70;10.65;;;;;;;;;;5011976;28;20112;-48
2020/12/09 01:54:16;;;;;;;16.77;10.27;;;;;;;;;;5012606;28;20022;-51
2020/12/09 01:56:42;;;;;;;16.27;9.88;;;;;;;;;;5012661;28;20037;-50
2020/12/09 01:59:08;;;;;;;16.67;10.05;;;;;;;;;;5012445;28;20029;-50
2020/12/09 02:01:34;;;;;;;16.67;9.57;;;;;;;;;;5012661;28;20034;-48
2020/12/09 02:04:00;;;;;;;17.10;10.25;;;;;;;;;;5012550;28;20076;-50
2020/12/09 02:06:26;;;;;;;18.85;9.73;;;;;;;;;;5012487;28;20109;-50
2020/12/09 02:08:52;;;;;;;16.27;9.27;;;;;;;;;;5012113;28;20108;-50
2020/12/09 02:11:18;;;;;;;16.98;10.38;;;;;;;;;;5011993;28;20030;-49
2020/12/09 02:13:45;;;;;;;15.43;9.50;;;;;;;;;;5011307;28;20014;-49
2020/12/09 02:16:13;;;;;;;16.30;10.05;;;;;;;;;;5012541;28;20084;-49
2020/12/09 02:18:39;;;;;;;16.63;9.43;;;;;;;;;;5010859;28;20025;-49
2020/12/09 02:21:05;;;;;;;17.83;9.82;;;;;;;;;;5012220;28;20034;-49
2020/12/09 02:23:31;;;;;;;17.45;9.73;;;;;;;;;;5012149;28;20041;-49
2020/12/09 02:25:57;;;;;;;15.10;9.40;;;;;;;;;;5012050;28;20061;-51
2020/12/09 02:28:23;;;;;;;17.17;9.80;;;;;;;;;;5012035;28;20547;-49
2020/12/09 02:30:50;;;;;;;17.70;9.23;;;;;;;;;;5012427;28;20484;-50
2020/12/09 02:33:16;;;;;;;17.67;10.00;;;;;;;;;;5011714;28;20040;-47
2020/12/09 02:35:42;;;;;;;21.20;10.75;;;;;;;;;;5012026;28;20042;-49
2020/12/09 02:38:08;;;;;;;21.77;11.05;;;;;;;;;;5015978;28;20042;-48
2020/12/09 02:40:34;;;;;;;18.40;10.38;;;;;;;;;;5015903;28;20541;-50
2020/12/09 02:43:00;;;;;;;17.77;10.05;;;;;;;;;;5015847;28;20061;-48
2020/12/09 02:45:26;;;;;;;19.63;10.75;;;;;;;;;;5015747;28;20392;-48
2020/12/09 02:47:52;;;;;;;21.33;11.15;;;;;;;;;;5015947;28;20034;-47
2020/12/09 02:50:19;;;;;;;23.33;11.50;;;;;;;;;;5015423;28;20025;-49
2020/12/09 02:52:45;;;;;;;22.13;10.93;;;;;;;;;;5015678;28;20045;-50
2020/12/09 02:55:11;;;;;;;24.95;12.38;;;;;;;;;;5015562;28;20022;-47
2020/12/09 02:57:37;;;;;;;20.35;10.98;;;;;;;;;;5015530;28;20045;-47
2020/12/09 03:00:06;;;;;;;23.48;11.80;;;;;;;;;;5015373;28;20092;-48
2020/12/09 03:02:32;;;;;;;30.00;13.70;;;;;;;;;;5015660;28;20022;-48
2020/12/09 03:04:58;;;;;;;17.40;9.85;;;;;;;;;;5015442;28;20478;-47
2020/12/09 03:07:24;;;;;;;26.35;12.38;;;;;;;;;;5015381;28;20037;-48
2020/12/09 03:09:50;;;;;;;22.88;12.10;;;;;;;;;;5013998;28;20053;-49
2020/12/09 03:12:16;;;;;;;22.13;10.82;;;;;;;;;;5025356;28;20382;-49
2020/12/09 03:14:42;;;;;;;17.75;9.27;;;;;;;;;;5013282;28;20025;-49
2020/12/09 03:17:08;;;;;;;17.60;9.38;;;;;;;;;;5012241;28;20034;-49
2020/12/09 03:19:34;;;;;;;15.77;8.90;;;;;;;;;;5015069;28;20049;-50
2020/12/09 03:22:00;;;;;;;13.85;8.50;;;;;;;;;;5014912;28;20033;-51
2020/12/09 03:24:26;;;;;;;14.98;8.13;;;;;;;;;;5013627;28;20022;-49
2020/12/09 03:26:52;;;;;;;20.55;10.38;;;;;;;;;;5013355;28;20519;-49
2020/12/09 03:29:18;;;;;;;24.95;12.00;;;;;;;;;;5014408;28;20466;-50
2020/12/09 03:31:45;;;;;;;18.13;9.40;;;;;;;;;;5014517;28;20041;-50
2020/12/09 03:34:11;;;;;;;21.30;11.27;;;;;;;;;;5014818;28;20076;-50
2020/12/09 03:36:37;;;;;;;17.15;9.77;;;;;;;;;;5014759;28;20080;-50
2020/12/09 03:39:03;;;;;;;18.70;10.48;;;;;;;;;;5011639;28;20477;-49
2020/12/09 03:41:29;;;;;;;16.60;9.73;;;;;;;;;;5014655;28;20030;-50
2020/12/09 03:43:55;;;;;;;16.08;9.55;;;;;;;;;;5015368;28;20022;-49
2020/12/09 03:46:21;;;;;;;16.75;9.38;;;;;;;;;;5014325;28;20030;-51
2020/12/09 03:48:47;;;;;;;16.25;9.20;;;;;;;;;;5014758;28;20034;-50
2020/12/09 03:51:13;;;;;;;15.38;9.20;;;;;;;;;;5014700;28;20420;-50
2020/12/09 03:53:39;;;;;;;14.13;8.98;;;;;;;;;;5029069;28;20448;-51
2020/12/09 03:56:05;;;;;;;14.13;8.57;;;;;;;;;;5014333;28;20022;-51
2020/12/09 03:58:31;;;;;;;14.57;8.57;;;;;;;;;;5014692;28;20613;-50
2020/12/09 04:00:58;;;;;;;14.15;8.60;;;;;;;;;;5014152;28;20026;-49
2020/12/09 04:03:24;;;;;;;15.90;8.63;;;;;;;;;;5014323;28;20432;-49
2020/12/09 04:05:50;;;;;;;15.35;8.55;;;;;;;;;;5013898;28;20034;-49
2020/12/09 04:08:16;;;;;;;14.32;8.35;;;;;;;;;;5013055;28;20497;-50
2020/12/09 04:10:42;;;;;;;17.15;9.35;;;;;;;;;;5013713;28;20108;-49
2020/12/09 04:13:08;;;;;;;14.25;8.77;;;;;;;;;;5014009;28;20097;-49
2020/12/09 04:15:34;;;;;;;20.60;10.60;;;;;;;;;;5014058;28;20363;-49
2020/12/09 04:18:00;;;;;;;15.73;8.93;;;;;;;;;;5013781;28;20466;-51
2020/12/09 04:20:26;;;;;;;16.83;9.73;;;;;;;;;;5013462;28;20049;-49
2020/12/09 04:22:52;;;;;;;13.07;8.10;;;;;;;;;;5013771;28;20113;-50
2020/12/09 04:25:18;;;;;;;12.27;7.53;;;;;;;;;;5013581;28;20053;-49
2020/12/09 04:27:44;;;;;;;13.23;7.65;;;;;;;;;;5013630;28;20034;-50
2020/12/09 04:30:10;;;;;;;12.13;7.55;;;;;;;;;;5013576;28;20109;-50
2020/12/09 04:32:36;;;;;;;12.85;7.47;;;;;;;;;;5013207;28;20034;-50
2020/12/09 04:35:04;;;;;;;14.38;7.97;;;;;;;;;;5014189;28;20033;-50
2020/12/09 04:37:30;;;;;;;12.18;7.38;;;;;;;;;;5013630;28;20037;-50
2020/12/09 04:39:56;;;;;;;13.82;7.63;;;;;;;;;;5014017;28;20021;-51
2020/12/09 04:42:23;;;;;;;12.00;7.25;;;;;;;;;;5013867;28;20033;-50
2020/12/09 04:44:50;;;;;;;12.70;7.97;;;;;;;;;;5013724;28;20493;-50
2020/12/09 04:47:24;;;;;;;13.18;8.00;;;;;;;;;;5013931;28;20034;-50
2020/12/09 04:49:55;;;;;;;10.52;6.65;;;;;;;;;;5013785;28;20037;-50
2020/12/09 04:52:48;;;;;;;11.52;7.00;;;;;;;;;;5014127;28;20044;-51
2020/12/09 04:55:15;;;;;;;12.05;6.90;;;;;;;;;;5005303;28;20470;-51
2020/12/09 04:57:43;;;;;;;11.57;6.55;;;;;;;;;;5013393;28;20049;-51
2020/12/09 05:00:10;;;;;;;10.95;6.75;;;;;;;;;;5012597;28;20501;-50
2020/12/09 05:02:51;;;;;;;11.23;6.32;;;;;;;;;;5013256;28;20393;-51
2020/12/09 05:05:17;;;;;;;11.93;6.47;;;;;;;;;;5006382;28;20044;-51
2020/12/09 05:07:51;;;;;;;11.25;6.35;;;;;;;;;;5012862;28;20057;-49
2020/12/09 05:10:18;;;;;;;11.82;7.00;;;;;;;;;;5012851;28;20046;-48
2020/12/09 05:12:46;;;;;;;10.35;6.30;;;;;;;;;;5013595;28;20022;-50
2020/12/09 05:15:18;;;;;;;11.98;6.45;;;;;;;;;;5013005;28;20456;-51
2020/12/09 05:17:54;;;;;;;11.70;7.10;;;;;;;;;;5013442;28;20044;-51
2020/12/09 05:20:31;;;;;;;12.02;6.72;;;;;;;;;;5013380;28;20025;-51
2020/12/09 05:22:57;;;;;;;10.57;6.50;;;;;;;;;;5013244;28;20050;-51
2020/12/09 05:25:24;;;;;;;11.00;6.75;;;;;;;;;;5009703;28;20026;-49
2020/12/09 05:27:50;;;;;;;10.82;6.55;;;;;;;;;;5009062;28;20048;-51
2020/12/09 05:30:35;;;;;;;11.05;6.80;;;;;;;;;;5012759;28;20030;-51
2020/12/09 05:33:01;;;;;;;12.38;6.70;;;;;;;;;;5012267;28;20104;-51
2020/12/09 05:35:27;;;;;;;10.85;6.72;;;;;;;;;;5013325;28;20382;-51
2020/12/09 05:38:13;;;;;;;11.48;7.32;;;;;;;;;;5013069;28;20045;-51
2020/12/09 05:40:40;;;;;;;12.60;6.68;;;;;;;;;;5012703;28;20026;-51
2020/12/09 05:43:06;;;;;;;10.82;6.90;;;;;;;;;;5012953;28;20029;-51
2020/12/09 05:45:32;;;;;;;11.57;6.93;;;;;;;;;;5013097;28;20114;-51
2020/12/09 05:48:11;;;;;;;11.38;7.07;;;;;;;;;;5013079;28;20389;-51
2020/12/09 05:50:48;;;;;;;11.20;6.57;;;;;;;;;;5013067;28;20033;-51
2020/12/09 05:53:18;;;;;;;12.18;7.25;;;;;;;;;;5012866;28;20037;-51
2020/12/09 05:55:44;;;;;;;11.85;7.07;;;;;;;;;;5012000;28;20381;-51
2020/12/09 05:58:23;;;;;;;10.75;6.82;;;;;;;;;;5012702;28;20100;-51
2020/12/09 06:01:06;;;;;;;12.18;6.82;;;;;;;;;;5013006;28;20026;-51
2020/12/09 06:03:34;;;;;;;14.13;6.85;;;;;;;;;;5012987;28;20030;-51
2020/12/09 06:06:19;;;;;;;14.18;7.25;;;;;;;;;;5012952;28;20029;-50
2020/12/09 06:08:45;;;;;;;13.63;7.47;;;;;;;;;;5012380;28;20026;-51
2020/12/09 06:11:12;;;;;;;13.13;6.72;;;;;;;;;;5011465;28;20042;-50
2020/12/09 06:13:38;;;;;;;11.63;6.80;;;;;;;;;;4999117;28;20017;-50
2020/12/09 06:16:06;;;;;;;11.82;7.15;;;;;;;;;;5012528;28;20026;-51
2020/12/09 06:18:33;;;;;;;11.60;6.88;;;;;;;;;;5012513;28;20101;-51
2020/12/09 06:20:59;;;;;;;13.88;6.85;;;;;;;;;;5012693;28;20033;-49
2020/12/09 06:23:27;;;;;;;11.75;7.18;;;;;;;;;;5012438;28;20026;-51
2020/12/09 06:25:53;;;;;;;10.93;6.47;;;;;;;;;;5012703;28;20022;-51
2020/12/09 06:28:20;;;;;;;10.27;6.65;;;;;;;;;;5012587;28;20053;-51
2020/12/09 06:30:47;;;;;;;13.07;7.20;;;;;;;;;;5012463;28;20489;-51
2020/12/09 06:33:27;;;;;;;9.85;6.22;;;;;;;;;;5012635;28;20029;-49
2020/12/09 06:36:09;;;;;;;10.63;6.38;;;;;;;;;;5012366;28;20022;-50
2020/12/09 06:38:35;;;;;;;12.83;7.37;;;;;;;;;;5012335;28;20521;-50
2020/12/09 06:41:04;;;;;;;13.02;7.82;;;;;;;;;;5012310;28;20018;-50
2020/12/09 06:43:30;;;;;;;11.65;6.80;;;;;;;;;;5012340;28;20096;-51
2020/12/09 06:45:56;;;;;;;15.32;9.15;;;;;;;;;;5012153;28;20373;-51
2020/12/09 06:48:24;;;;;;;10.80;6.85;;;;;;;;;;5012268;28;20053;-51
2020/12/09 06:50:52;;;;;;;12.65;7.57;;;;;;;;;;5012083;28;20088;-51
2020/12/09 06:53:19;;;;;;;13.27;7.95;;;;;;;;;;5012405;28;20094;-51
2020/12/09 06:55:46;;;;;;;13.18;8.05;;;;;;;;;;5012341;28;20088;-51
2020/12/09 06:58:21;;;;;;;14.38;8.73;;;;;;;;;;5012056;28;20038;-51
2020/12/09 07:01:06;;;;;;;11.82;7.85;;;;;;;;;;5012299;28;20102;-50
2020/12/09 07:03:37;;;;;;;13.70;8.63;;;;;;;;;;5012211;28;20032;-51
2020/12/09 07:06:29;;;;;;;14.18;8.48;;;;;;;;;;5011940;28;20022;-51
2020/12/09 07:08:55;;;;;;;14.52;8.57;;;;;;;;;;5011433;28;20046;-51
2020/12/09 07:11:21;;;;;;;14.10;7.95;;;;;;;;;;5011959;28;20032;-51
2020/12/09 07:13:47;;;;;;;12.80;7.88;;;;;;;;;;5012066;28;20026;-51
2020/12/09 07:16:13;;;;;;;13.55;7.43;;;;;;;;;;5011895;28;20026;-51
2020/12/09 07:18:40;;;;;;;15.85;8.73;;;;;;;;;;5011852;28;20072;-51
2020/12/09 07:21:07;;;;;;;11.13;6.82;;;;;;;;;;5012082;28;20029;-50
2020/12/09 07:23:36;;;;;;;11.50;6.78;;;;;;;;;;5014808;28;20030;-50
2020/12/09 07:26:03;;;;;;;11.38;7.03;;;;;;;;;;5015500;28;20033;-50
2020/12/09 07:28:32;;;;;;;14.25;8.40;;;;;;;;;;5015383;28;20026;-51
2020/12/09 07:31:05;;;;;;;15.10;9.13;;;;;;;;;;5015420;28;20076;-51
2020/12/09 07:33:31;;;;;;;15.70;9.23;;;;;;;;;;5015361;28;20389;-51
2020/12/09 07:36:09;;;;;;;14.43;8.80;;;;;;;;;;5015320;28;20492;-52
2020/12/09 07:38:35;;;;;;;11.90;7.63;;;;;;;;;;5015280;28;20046;-51
2020/12/09 07:41:02;;;;;;;14.27;8.43;;;;;;;;;;5015134;28;20041;-51
2020/12/09 07:43:28;;;;;;;11.80;7.47;;;;;;;;;;5015327;28;20029;-51
2020/12/09 07:46:00;;;;;;;12.30;7.85;;;;;;;;;;5015245;28;20022;-50
2020/12/09 07:48:26;;;;;;;;;;;;;;;;;;5015556;28;20057;-51
2020/12/09 07:50:52;;;;;;;13.35;7.57;;;;;;;;;;5015057;28;19944;-51
2020/12/09 07:53:19;;;;;;;12.63;7.53;;;;;;;;;;5014846;28;20026;-51
2020/12/09 07:55:46;;;;;;;11.13;7.47;;;;;;;;;;5015000;28;20093;-51
2020/12/09 07:58:14;;;;;;;13.73;8.10;;;;;;;;;;5014744;28;20052;-51
2020/12/09 08:00:44;;;;;;;13.73;8.05;;;;;;;;;;5015053;28;20028;-51
2020/12/09 08:03:17;;;;;;;13.15;7.90;;;;;;;;;;5014804;28;20080;-51
2020/12/09 08:05:43;;;;;;;14.70;7.80;;;;;;;;;;5014716;28;20474;-51
2020/12/09 08:08:13;;;;;;;17.27;9.73;;;;;;;;;;5014586;28;20038;-51
2020/12/09 08:10:43;;;;;;;18.83;10.32;;;;;;;;;;5014519;28;20100;-52
2020/12/09 08:13:09;;;;;;;15.85;9.88;;;;;;;;;;5014507;28;20026;-52
2020/12/09 08:15:36;;;;;;;13.07;8.18;;;;;;;;;;5014893;28;20026;-52
2020/12/09 08:18:02;;;;;;;14.77;8.68;;;;;;;;;;5014410;28;20513;-51
2020/12/09 08:20:29;;;;;;;13.75;8.52;;;;;;;;;;5014587;28;20112;-51
2020/12/09 08:22:59;;;;;;;12.05;7.47;;;;;;;;;;5014429;28;20033;-51
2020/12/09 08:25:32;;;;;;;12.27;7.57;;;;;;;;;;5014185;28;20022;-51
2020/12/09 08:28:05;;;;;;;12.45;8.02;;;;;;;;;;5029953;28;20448;-51
2020/12/09 08:30:32;;;;;;;16.20;8.13;;;;;;;;;;5014109;28;20025;-51
2020/12/09 08:32:58;;;;;;;15.70;8.52;;;;;;;;;;5014157;28;20037;-50
2020/12/09 08:35:24;;;;;;;15.90;9.02;;;;;;;;;;5013415;28;20026;-51
2020/12/09 08:37:50;;;;;;;19.95;10.38;;;;;;;;;;5013552;28;20401;-51
2020/12/09 08:40:17;;;;;;;15.57;9.13;;;;;;;;;;5014203;28;20045;-51
2020/12/09 08:42:56;;;;;;;16.70;8.70;;;;;;;;;;5014225;28;20054;-51
2020/12/09 08:45:22;;;;;;;12.77;8.07;;;;;;;;;;5014161;28;20068;-51
2020/12/09 08:47:48;;;;;;;14.23;8.98;;;;;;;;;;5014188;28;20026;-51
2020/12/09 08:50:15;;;;;;;12.80;8.10;;;;;;;;;;5014007;28;20091;-51
2020/12/09 08:52:41;;;;;;;13.23;7.80;;;;;;;;;;5013663;28;20172;-51
2020/12/09 08:55:07;;;;;;;16.85;9.20;;;;;;;;;;5013368;28;20014;-51
2020/12/09 08:57:33;;;;;;;15.30;9.27;;;;;;;;;;5013722;28;20123;-52
2020/12/09 08:59:59;;;;;;;14.13;8.63;;;;;;;;;;5013605;28;20022;-51
2020/12/09 09:02:26;;;;;;;13.80;8.23;;;;;;;;;;5013963;28;20026;-51
2020/12/09 09:04:52;;;;;;;14.05;8.10;;;;;;;;;;5013681;28;20424;-51
2020/12/09 09:07:18;;;;;;;14.02;8.10;;;;;;;;;;5013795;28;20029;-50
2020/12/09 09:09:44;;;;;;;12.95;8.35;;;;;;;;;;5013126;28;20102;-51
2020/12/09 09:12:10;;;;;;;12.13;8.45;;;;;;;;;;5013736;28;20029;-51
2020/12/09 09:14:37;;;;;;;14.32;9.43;;;;;;;;;;5013796;28;20032;-51
2020/12/09 09:17:03;;;;;;;23.58;11.43;;;;;;;;;;5013661;28;20092;-51
2020/12/09 09:19:29;;;;;;;12.80;7.75;;;;;;;;;;5013219;28;20102;-51
2020/12/09 09:21:55;;;;;;;10.52;6.72;;;;;;;;;;5013248;28;20377;-51
2020/12/09 09:24:21;;;;;;;15.88;9.35;;;;;;;;;;5013141;28;20026;-51
2020/12/09 09:26:47;;;;;;;12.25;7.40;;;;;;;;;;5013157;28;20037;-49
2020/12/09 09:29:13;;;;;;;11.73;7.18;;;;;;;;;;5013260;28;20105;-52
2020/12/09 09:31:39;;;;;;;11.65;7.10;;;;;;;;;;5013269;28;20030;-51
2020/12/09 09:34:05;;;;;;;11.27;7.47;;;;;;;;;;5013142;28;20108;-50
2020/12/09 09:36:32;;;;;;;14.18;8.35;;;;;;;;;;5013116;28;20041;-49
2020/12/09 09:38:58;;;;;;;13.07;7.40;;;;;;;;;;5012876;28;20088;-50
2020/12/09 09:41:24;;;;;;;13.77;9.10;;;;;;;;;;5012816;28;20104;-51
2020/12/09 09:43:50;;;;;;;15.73;9.27;;;;;;;;;;5013018;28;20030;-49
2020/12/09 09:46:21;;;;;;;12.20;7.78;;;;;;;;;;5012848;28;20037;-50
2020/12/09 09:48:47;;;;;;;11.73;8.13;;;;;;;;;;5012955;28;20034;-50
2020/12/09 09:51:13;;;;;;;13.35;8.15;;;;;;;;;;5012835;28;20030;-49
2020/12/09 09:53:39;;;;;;;12.82;8.18;;;;;;;;;;5012680;28;20022;-49
2020/12/09 09:56:07;;;;;;;14.02;8.65;;;;;;;;;;5012659;28;20029;-51
2020/12/09 09:58:33;;;;;;;14.75;9.70;;;;;;;;;;5012797;28;20121;-51
2020/12/09 10:01:00;;;;;;;12.63;8.48;;;;;;;;;;5012888;28;20385;-51
2020/12/09 10:03:26;;;;;;;12.98;8.93;;;;;;;;;;4998885;28;20104;-51
2020/12/09 10:05:52;;;;;;;10.65;6.63;;;;;;;;;;5012657;28;20030;-50
2020/12/09 10:08:19;;;;;;;13.65;8.60;;;;;;;;;;5012098;28;20034;-51
2020/12/09 10:10:45;;;;;;;12.13;8.43;;;;;;;;;;5012503;28;20128;-51
2020/12/09 10:13:11;;;;;;;14.00;8.68;;;;;;;;;;5012278;28;20029;-51
2020/12/09 10:15:37;;;;;;;9.98;6.80;;;;;;;;;;5012564;28;20033;-51
2020/12/09 10:18:04;;;;;;;9.98;7.10;;;;;;;;;;5012254;28;20528;-52
2020/12/09 10:20:30;;;;;;;9.88;6.18;;;;;;;;;;5012485;28;20387;-52
2020/12/09 10:22:56;;;;;;;13.18;9.15;;;;;;;;;;5012406;28;20397;-52
2020/12/09 10:25:24;;;;;;;8.48;6.43;;;;;;;;;;5012251;28;20022;-51
2020/12/09 10:27:50;;;;;;;13.10;7.60;;;;;;;;;;5012422;28;20560;-51
2020/12/09 10:30:16;;;;;;;12.55;8.07;;;;;;;;;;5012071;28;20040;-50
2020/12/09 10:32:42;;;;;;;10.57;6.70;;;;;;;;;;5012556;28;20026;-51
2020/12/09 10:35:08;;;;;;;11.88;8.07;;;;;;;;;;5012413;28;20026;-50
2020/12/09 10:37:34;;;;;;;10.70;7.45;;;;;;;;;;5011946;28;20038;-51
2020/12/09 10:40:00;;;;;;;11.65;7.53;;;;;;;;;;5012465;28;20049;-51
2020/12/09 10:42:26;;;;;;;11.07;7.30;;;;;;;;;;5012038;28;20548;-51
2020/12/09 10:44:52;;;;;;;13.10;8.18;;;;;;;;;;5012367;28;20033;-51
2020/12/09 10:47:18;;;;;;;11.23;8.05;;;;;;;;;;5027361;28;20055;-51
2020/12/09 10:49:44;;;;;;;12.50;8.75;;;;;;;;;;5011944;28;20466;-51
2020/12/09 10:52:11;;;;;;;12.20;8.68;;;;;;;;;;5012007;28;20033;-51
2020/12/09 10:54:37;;;;;;;13.60;8.43;;;;;;;;;;5012059;28;20022;-52
2020/12/09 10:57:04;;;;;;;20.38;12.15;;;;;;;;;;5012861;28;20167;-52
2020/12/09 10:59:30;;;;;;;15.32;9.20;;;;;;;;;;5015955;28;20030;-52
2020/12/09 11:01:56;;;;;;;10.90;7.60;;;;;;;;;;5015973;28;20421;-52
2020/12/09 11:04:22;;;;;;;18.20;10.43;;;;;;;;;;5016051;28;20589;-52
2020/12/09 11:06:48;;;;;;;12.23;8.07;;;;;;;;;;5015560;28;20046;-49
2020/12/09 11:09:14;;;;;;;13.90;8.82;;;;;;;;;;5015447;28;20057;-49
2020/12/09 11:11:46;;;;;;;11.90;8.13;;;;;;;;;;5015505;28;20860;-50
2020/12/09 11:14:16;;;;;;;21.25;19.00;;;;;;;;;;5015969;28;20029;-51
2020/12/09 11:16:42;;;;;;;12.18;8.75;;;;;;;;;;5015439;28;20037;-50
2020/12/09 11:19:09;;;;;;;14.40;9.00;;;;;;;;;;5015824;28;20109;-50
2020/12/09 11:21:37;;;;;;;12.88;9.30;;;;;;;;;;5015405;28;20084;-50
2020/12/09 11:24:03;;;;;;;12.15;8.63;;;;;;;;;;5015568;28;20026;-50
2020/12/09 11:26:29;;;;;;;12.77;8.40;;;;;;;;;;5015255;28;20028;-50
2020/12/09 11:28:55;;;;;;;10.57;7.72;;;;;;;;;;5015334;28;20026;-51
2020/12/09 11:31:24;;;;;;;10.95;7.82;;;;;;;;;;5015061;28;20427;-52
2020/12/09 11:33:50;;;;;;;11.63;8.00;;;;;;;;;;5015216;28;20393;-51
2020/12/09 11:36:16;;;;;;;12.70;7.40;;;;;;;;;;5015265;28;20026;-50
2020/12/09 11:38:42;;;;;;;13.43;8.60;;;;;;;;;;5015089;28;20520;-53
2020/12/09 11:41:08;;;;;;;13.85;8.77;;;;;;;;;;5015230;28;20390;-52
2020/12/09 11:43:34;;;;;;;11.88;6.72;;;;;;;;;;5015126;28;20030;-51
2020/12/09 11:46:01;;;;;;;13.38;8.25;;;;;;;;;;5015131;28;20034;-51
2020/12/09 11:48:27;;;;;;;11.57;7.28;;;;;;;;;;5015137;28;20053;-51
2020/12/09 11:50:53;;;;;;;13.73;9.48;;;;;;;;;;5015047;28;20080;-51
2020/12/09 11:53:19;;;;;;;13.43;8.18;;;;;;;;;;5014894;28;20037;-50
2020/12/09 11:55:46;;;;;;;17.45;11.10;;;;;;;;;;5014592;28;20097;-52
2020/12/09 11:58:13;;;;;;;15.77;9.77;;;;;;;;;;5014462;28;20030;-51
2020/12/09 12:00:39;;;;;;;14.32;8.60;;;;;;;;;;5014730;28;20014;-51
2020/12/09 12:03:05;;;;;;;11.95;6.78;;;;;;;;;;5014699;28;20036;-52
2020/12/09 12:05:33;;;;;;;12.45;8.40;;;;;;;;;;5014876;28;20022;-51
2020/12/09 12:07:59;;;;;;;14.27;8.35;;;;;;;;;;5013499;28;20037;-51
2020/12/09 12:10:25;;;;;;;14.25;7.78;;;;;;;;;;5013180;28;20045;-50
2020/12/09 12:12:51;;;;;;;20.30;11.30;;;;;;;;;;5011877;28;20022;-52
2020/12/09 12:15:17;;;;;;;13.15;6.78;;;;;;;;;;5013411;28;20071;-49
2020/12/09 12:17:43;;;;;;;9.20;5.97;;;;;;;;;;5013196;28;20120;-50
2020/12/09 12:20:10;;;;;;;10.45;6.22;;;;;;;;;;5010626;28;20029;-50
2020/12/09 12:22:36;;;;;;;9.07;5.65;;;;;;;;;;5012953;28;20030;-51
2020/12/09 12:25:02;;;;;;;9.38;5.95;;;;;;;;;;5013089;28;20026;-50
2020/12/09 12:27:28;;;;;;;10.27;6.35;;;;;;;;;;5012990;28;20018;-50
2020/12/09 12:29:54;;;;;;;13.15;7.53;;;;;;;;;;5012643;28;20033;-50
2020/12/09 12:32:20;;;;;;;10.02;6.50;;;;;;;;;;5012458;28;20075;-50
2020/12/09 12:34:46;;;;;;;10.23;6.97;;;;;;;;;;5012817;28;20140;-51
2020/12/09 12:37:12;;;;;;;15.68;8.50;;;;;;;;;;5012313;28;20069;-50
2020/12/09 12:39:38;;;;;;;13.18;7.88;;;;;;;;;;5012348;28;20030;-50
2020/12/09 12:42:04;;;;;;;16.80;10.57;;;;;;;;;;5012428;28;20036;-50
2020/12/09 12:44:30;;;;;;;12.05;7.22;;;;;;;;;;5012313;28;20028;-50
2020/12/09 12:46:56;;;;;;;13.55;7.90;;;;;;;;;;5011892;28;20084;-50
2020/12/09 12:49:22;;;;;;;11.73;7.00;;;;;;;;;;5012869;28;20215;-51
2020/12/09 12:51:51;;;;;;;12.07;7.68;;;;;;;;;;5012636;28;20132;-49
2020/12/09 12:54:17;;;;;;;13.48;7.22;;;;;;;;;;5013135;28;20021;-51
2020/12/09 12:56:43;;;;;;;10.80;6.85;;;;;;;;;;5012917;28;20096;-50
2020/12/09 12:59:09;;;;;;;12.55;7.43;;;;;;;;;;5013293;28;20034;-50
2020/12/09 13:01:35;;;;;;;10.30;6.30;;;;;;;;;;5013548;28;20018;-51
2020/12/09 13:04:01;;;;;;;9.18;5.88;;;;;;;;;;5013671;28;20026;-52
2020/12/09 13:06:27;;;;;;;10.20;5.93;;;;;;;;;;5013611;28;20021;-52
2020/12/09 13:08:53;;;;;;;9.48;6.20;;;;;;;;;;5013062;28;20037;-51
2020/12/09 13:11:19;;;;;;;11.45;7.07;;;;;;;;;;5013397;28;20022;-50
2020/12/09 13:13:45;;;;;;;10.10;5.85;;;;;;;;;;5013384;28;20483;-52
2020/12/09 13:16:11;;;;;;;10.35;6.28;;;;;;;;;;5012971;28;20523;-51
2020/12/09 13:18:37;;;;;;;11.90;5.95;;;;;;;;;;5012495;28;20076;-53
2020/12/09 13:21:04;;;;;;;10.38;6.35;;;;;;;;;;5012609;28;20021;-53
2020/12/09 13:23:30;;;;;;;13.63;8.10;;;;;;;;;;5013259;28;20029;-51
2020/12/09 13:25:56;;;;;;;13.07;8.25;;;;;;;;;;5013133;28;20033;-52
2020/12/09 13:28:23;;;;;;;13.52;8.02;;;;;;;;;;5013140;28;20026;-51
2020/12/09 13:30:49;;;;;;;12.48;8.02;;;;;;;;;;5012942;28;20033;-53
2020/12/09 13:33:15;;;;;;;10.88;6.22;;;;;;;;;;5013290;28;20029;-50
2020/12/09 13:35:42;;;;;;;12.32;7.80;;;;;;;;;;5013162;28;20469;-51
2020/12/09 13:38:08;;;;;;;11.13;6.82;;;;;;;;;;5012776;28;20042;-49
2020/12/09 13:40:34;;;;;;;17.15;8.65;;;;;;;;;;5012958;28;20022;-51
2020/12/09 13:43:01;;;;;;;11.43;6.90;;;;;;;;;;5012829;28;20036;-52
2020/12/09 13:45:27;;;;;;;12.68;6.95;;;;;;;;;;5009695;28;20581;-51
2020/12/09 13:47:53;;;;;;;13.18;6.72;;;;;;;;;;5012362;28;20493;-49
2020/12/09 13:50:19;;;;;;;8.50;5.40;;;;;;;;;;5012352;28;20022;-50
2020/12/09 13:52:45;;;;;;;11.00;7.10;;;;;;;;;;5012740;28;20061;-51
2020/12/09 13:55:11;;;;;;;12.25;7.72;;;;;;;;;;5012575;28;20034;-49
2020/12/09 13:57:37;;;;;;;9.45;6.43;;;;;;;;;;5012094;28;20038;-50
2020/12/09 14:00:07;;;;;;;11.57;7.57;;;;;;;;;;5011311;28;20057;-51
2020/12/09 14:02:33;;;;;;;14.43;7.97;;;;;;;;;;5012762;28;20040;-51
2020/12/09 14:04:59;;;;;;;19.88;10.13;;;;;;;;;;5012596;28;20091;-51
2020/12/09 14:07:25;;;;;;;15.20;8.25;;;;;;;;;;5012970;28;20198;-50
2020/12/09 14:09:53;;;;;;;13.18;7.90;;;;;;;;;;5011504;28;20037;-49
2020/12/09 14:12:19;;;;;;;19.48;10.55;;;;;;;;;;5011160;28;20446;-53
2020/12/09 14:14:45;;;;;;;15.05;8.95;;;;;;;;;;5011713;28;20025;-51
2020/12/09 14:17:11;;;;;;;13.48;8.75;;;;;;;;;;5011678;28;20056;-50
2020/12/09 14:19:40;;;;;;;14.38;8.90;;;;;;;;;;5012023;28;20079;-51
2020/12/09 14:22:06;;;;;;;11.18;6.85;;;;;;;;;;5011930;28;20037;-50
2020/12/09 14:24:33;;;;;;;15.35;9.15;;;;;;;;;;5011734;28;20093;-51
2020/12/09 14:27:00;;;;;;;16.17;9.88;;;;;;;;;;5012412;28;20109;-50
2020/12/09 14:29:26;;;;;;;14.40;8.15;;;;;;;;;;5010720;28;20480;-50